sensor_id;sensor_type;location;lat;lon;timestamp;temperature;humidity
3644;DHT22;1838;50.742;7.158;2023-09-19T00:02:01;17.40;99.90
3644;DHT22;1838;50.742;7.158;2023-09-19T00:04:34;17.30;99.90
3644;DHT22;1838;50.742;7.158;2023-09-19T00:07:00;17.30;99.90
3644;DHT22;1838;50.742;7.158;2023-09-19T00:09:28;17.30;99.90
3644;DHT22;1838;50.742;7.158;2023-09-19T00:11:53;17.20;99.90
3644;DHT22;1838;50.742;7.158;2023-09-19T00:14:19;17.20;99.90
3644;DHT22;1838;50.742;7.158;2023-09-19T00:16:45;17.10;99.90
3644;DHT22;1838;50.742;7.158;2023-09-19T00:19:11;17.00;99.90
3644;DHT22;1838;50.742;7.158;2023-09-19T00:21:37;17.10;99.90
3644;DHT22;1838;50.742;7.158;2023-09-19T00:24:04;17.00;99.90
3644;DHT22;1838;50.742;7.158;2023-09-19T00:26:32;17.00;99.90
3644;DHT22;1838;50.742;7.158;2023-09-19T00:28:57;17.00;99.90
3644;DHT22;1838;50.742;7.158;2023-09-19T00:31:30;17.00;99.90
3644;DHT22;1838;50.742;7.158;2023-09-19T00:33:55;16.90;99.90
3644;DHT22;1838;50.742;7.158;2023-09-19T00:36:25;16.90;99.90
3644;DHT22;1838;50.742;7.158;2023-09-19T00:38:50;16.90;99.90
3644;DHT22;1838;50.742;7.158;2023-09-19T00:41:16;16.90;99.90
3644;DHT22;1838;50.742;7.158;2023-09-19T00:43:41;17.00;99.90
3644;DHT22;1838;50.742;7.158;2023-09-19T00:46:07;17.00;99.90
3644;DHT22;1838;50.742;7.158;2023-09-19T00:48:40;16.90;99.90
3644;DHT22;1838;50.742;7.158;2023-09-19T00:51:06;16.90;99.90
3644;DHT22;1838;50.742;7.158;2023-09-19T00:53:32;16.80;99.90
3644;DHT22;1838;50.742;7.158;2023-09-19T00:55:59;16.80;99.90
3644;DHT22;1838;50.742;7.158;2023-09-19T00:58:25;16.80;99.90
3644;DHT22;1838;50.742;7.158;2023-09-19T01:00:51;16.80;99.90
3644;DHT22;1838;50.742;7.158;2023-09-19T01:03:18;16.70;99.90
3644;DHT22;1838;50.742;7.158;2023-09-19T01:05:44;16.70;99.90
3644;DHT22;1838;50.742;7.158;2023-09-19T01:08:10;16.70;99.90
3644;DHT22;1838;50.742;7.158;2023-09-19T01:10:46;16.70;99.90
3644;DHT22;1838;50.742;7.158;2023-09-19T01:13:29;16.70;99.90
3644;DHT22;1838;50.742;7.158;2023-09-19T01:21:48;16.60;99.90
3644;DHT22;1838;50.742;7.158;2023-09-19T01:24:33;16.60;99.90
3644;DHT22;1838;50.742;7.158;2023-09-19T01:27:14;16.60;99.90
3644;DHT22;1838;50.742;7.158;2023-09-19T01:29:45;16.50;99.90
3644;DHT22;1838;50.742;7.158;2023-09-19T01:32:16;16.60;99.90
3644;DHT22;1838;50.742;7.158;2023-09-19T01:34:58;16.60;99.90
3644;DHT22;1838;50.742;7.158;2023-09-19T01:37:29;16.60;99.90
3644;DHT22;1838;50.742;7.158;2023-09-19T01:39:58;16.60;99.90
3644;DHT22;1838;50.742;7.158;2023-09-19T01:42:37;16.60;99.90
3644;DHT22;1838;50.742;7.158;2023-09-19T01:48:03;16.70;99.90
3644;DHT22;1838;50.742;7.158;2023-09-19T01:50:37;16.80;99.90
3644;DHT22;1838;50.742;7.158;2023-09-19T01:55:50;16.80;99.90
3644;DHT22;1838;50.742;7.158;2023-09-19T01:58:21;16.80;99.90
3644;DHT22;1838;50.742;7.158;2023-09-19T02:00:50;16.80;99.90
3644;DHT22;1838;50.742;7.158;2023-09-19T02:03:17;16.90;99.90
3644;DHT22;1838;50.742;7.158;2023-09-19T02:05:51;16.90;99.90
3644;DHT22;1838;50.742;7.158;2023-09-19T02:08:19;16.90;99.90
3644;DHT22;1838;50.742;7.158;2023-09-19T02:10:45;17.00;99.90
3644;DHT22;1838;50.742;7.158;2023-09-19T02:13:18;17.00;99.90
3644;DHT22;1838;50.742;7.158;2023-09-19T02:15:44;17.00;99.90
3644;DHT22;1838;50.742;7.158;2023-09-19T02:18:11;17.00;99.90
3644;DHT22;1838;50.742;7.158;2023-09-19T02:20:39;17.10;99.90
3644;DHT22;1838;50.742;7.158;2023-09-19T02:23:06;17.20;99.90
3644;DHT22;1838;50.742;7.158;2023-09-19T02:25:31;17.10;99.90
3644;DHT22;1838;50.742;7.158;2023-09-19T02:27:57;17.20;99.90
3644;DHT22;1838;50.742;7.158;2023-09-19T02:30:24;17.20;99.90
3644;DHT22;1838;50.742;7.158;2023-09-19T02:32:51;17.20;99.90
3644;DHT22;1838;50.742;7.158;2023-09-19T02:35:17;17.20;99.90
3644;DHT22;1838;50.742;7.158;2023-09-19T02:37:45;17.20;99.90
3644;DHT22;1838;50.742;7.158;2023-09-19T02:40:11;17.20;99.90
3644;DHT22;1838;50.742;7.158;2023-09-19T02:42:55;17.20;99.90
3644;DHT22;1838;50.742;7.158;2023-09-19T02:45:21;17.10;99.90
3644;DHT22;1838;50.742;7.158;2023-09-19T02:47:48;17.20;99.90
3644;DHT22;1838;50.742;7.158;2023-09-19T02:50:14;17.20;99.90
3644;DHT22;1838;50.742;7.158;2023-09-19T02:52:42;17.10;99.90
3644;DHT22;1838;50.742;7.158;2023-09-19T02:55:09;17.10;99.90
3644;DHT22;1838;50.742;7.158;2023-09-19T02:57:38;17.00;99.90
3644;DHT22;1838;50.742;7.158;2023-09-19T03:00:07;17.00;99.90
3644;DHT22;1838;50.742;7.158;2023-09-19T03:02:33;17.00;99.90
3644;DHT22;1838;50.742;7.158;2023-09-19T03:05:00;16.90;99.90
3644;DHT22;1838;50.742;7.158;2023-09-19T03:07:26;16.80;99.90
3644;DHT22;1838;50.742;7.158;2023-09-19T03:09:51;16.80;99.90
3644;DHT22;1838;50.742;7.158;2023-09-19T03:12:18;16.80;99.90
3644;DHT22;1838;50.742;7.158;2023-09-19T03:14:43;16.80;99.90
3644;DHT22;1838;50.742;7.158;2023-09-19T03:17:09;16.70;99.90
3644;DHT22;1838;50.742;7.158;2023-09-19T03:19:35;16.70;99.90
3644;DHT22;1838;50.742;7.158;2023-09-19T03:22:00;16.60;99.90
3644;DHT22;1838;50.742;7.158;2023-09-19T03:24:26;16.50;99.90
3644;DHT22;1838;50.742;7.158;2023-09-19T03:26:52;16.60;99.90
3644;DHT22;1838;50.742;7.158;2023-09-19T03:29:18;16.50;99.90
3644;DHT22;1838;50.742;7.158;2023-09-19T03:31:43;16.50;99.90
3644;DHT22;1838;50.742;7.158;2023-09-19T03:34:09;16.50;99.90
3644;DHT22;1838;50.742;7.158;2023-09-19T03:36:35;16.40;99.90
3644;DHT22;1838;50.742;7.158;2023-09-19T03:39:01;16.40;99.90
3644;DHT22;1838;50.742;7.158;2023-09-19T03:41:26;16.40;99.90
3644;DHT22;1838;50.742;7.158;2023-09-19T03:43:52;16.40;99.90
3644;DHT22;1838;50.742;7.158;2023-09-19T03:46:18;16.40;99.90
3644;DHT22;1838;50.742;7.158;2023-09-19T03:48:44;16.40;99.90
3644;DHT22;1838;50.742;7.158;2023-09-19T03:51:09;16.30;99.90
3644;DHT22;1838;50.742;7.158;2023-09-19T03:53:36;16.20;99.90
3644;DHT22;1838;50.742;7.158;2023-09-19T03:56:01;16.20;99.90
3644;DHT22;1838;50.742;7.158;2023-09-19T03:58:28;16.20;99.90
3644;DHT22;1838;50.742;7.158;2023-09-19T04:00:57;16.20;99.90
3644;DHT22;1838;50.742;7.158;2023-09-19T04:03:23;16.20;99.90
3644;DHT22;1838;50.742;7.158;2023-09-19T04:05:50;16.20;99.90
3644;DHT22;1838;50.742;7.158;2023-09-19T04:08:15;16.10;99.90
3644;DHT22;1838;50.742;7.158;2023-09-19T04:10:42;16.00;99.90
3644;DHT22;1838;50.742;7.158;2023-09-19T04:13:09;15.90;99.90
3644;DHT22;1838;50.742;7.158;2023-09-19T04:15:34;15.80;99.90
3644;DHT22;1838;50.742;7.158;2023-09-19T04:18:00;15.70;99.90
3644;DHT22;1838;50.742;7.158;2023-09-19T04:20:25;15.60;99.90
3644;DHT22;1838;50.742;7.158;2023-09-19T04:22:51;15.60;99.90
3644;DHT22;1838;50.742;7.158;2023-09-19T04:25:17;15.50;99.90
3644;DHT22;1838;50.742;7.158;2023-09-19T04:27:44;15.40;99.90
3644;DHT22;1838;50.742;7.158;2023-09-19T04:30:10;15.30;99.90
3644;DHT22;1838;50.742;7.158;2023-09-19T04:32:40;15.20;99.90
3644;DHT22;1838;50.742;7.158;2023-09-19T04:35:07;15.20;99.90
3644;DHT22;1838;50.742;7.158;2023-09-19T04:37:41;15.00;99.90
3644;DHT22;1838;50.742;7.158;2023-09-19T04:40:10;14.90;99.90
3644;DHT22;1838;50.742;7.158;2023-09-19T04:42:40;14.90;99.90
3644;DHT22;1838;50.742;7.158;2023-09-19T04:45:07;14.90;99.90
3644;DHT22;1838;50.742;7.158;2023-09-19T04:47:34;14.80;99.90
3644;DHT22;1838;50.742;7.158;2023-09-19T04:50:00;14.80;99.90
3644;DHT22;1838;50.742;7.158;2023-09-19T04:52:25;14.80;99.90
3644;DHT22;1838;50.742;7.158;2023-09-19T04:54:51;14.70;99.90
3644;DHT22;1838;50.742;7.158;2023-09-19T04:57:16;14.70;99.90
3644;DHT22;1838;50.742;7.158;2023-09-19T04:59:42;14.70;99.90
3644;DHT22;1838;50.742;7.158;2023-09-19T05:02:07;14.80;99.90
3644;DHT22;1838;50.742;7.158;2023-09-19T05:04:37;14.80;99.90
3644;DHT22;1838;50.742;7.158;2023-09-19T05:07:02;14.80;99.90
3644;DHT22;1838;50.742;7.158;2023-09-19T05:09:29;14.80;99.90
3644;DHT22;1838;50.742;7.158;2023-09-19T05:11:54;14.80;99.90
3644;DHT22;1838;50.742;7.158;2023-09-19T05:14:21;14.90;99.90
3644;DHT22;1838;50.742;7.158;2023-09-19T05:16:47;14.90;99.90
3644;DHT22;1838;50.742;7.158;2023-09-19T05:19:13;14.90;99.90
3644;DHT22;1838;50.742;7.158;2023-09-19T05:21:38;15.00;99.90
3644;DHT22;1838;50.742;7.158;2023-09-19T05:24:07;15.00;99.90
3644;DHT22;1838;50.742;7.158;2023-09-19T05:26:33;15.00;99.90
3644;DHT22;1838;50.742;7.158;2023-09-19T05:28:58;15.00;99.90
3644;DHT22;1838;50.742;7.158;2023-09-19T05:31:24;15.00;99.90
3644;DHT22;1838;50.742;7.158;2023-09-19T05:33:51;15.00;99.90
3644;DHT22;1838;50.742;7.158;2023-09-19T05:36:19;14.90;99.90
3644;DHT22;1838;50.742;7.158;2023-09-19T05:38:45;14.80;99.90
3644;DHT22;1838;50.742;7.158;2023-09-19T05:41:14;14.90;99.90
3644;DHT22;1838;50.742;7.158;2023-09-19T05:43:40;14.80;99.90
3644;DHT22;1838;50.742;7.158;2023-09-19T05:46:06;14.80;99.90
3644;DHT22;1838;50.742;7.158;2023-09-19T05:48:33;14.80;99.90
3644;DHT22;1838;50.742;7.158;2023-09-19T05:50:59;14.80;99.90
3644;DHT22;1838;50.742;7.158;2023-09-19T05:53:26;14.80;99.90
3644;DHT22;1838;50.742;7.158;2023-09-19T05:55:52;14.90;99.90
3644;DHT22;1838;50.742;7.158;2023-09-19T05:58:19;14.90;99.90
3644;DHT22;1838;50.742;7.158;2023-09-19T06:00:45;14.90;99.90
3644;DHT22;1838;50.742;7.158;2023-09-19T06:03:12;14.90;99.90
3644;DHT22;1838;50.742;7.158;2023-09-19T06:05:39;14.90;99.90
3644;DHT22;1838;50.742;7.158;2023-09-19T06:08:07;15.00;99.90
3644;DHT22;1838;50.742;7.158;2023-09-19T06:10:33;15.00;99.90
3644;DHT22;1838;50.742;7.158;2023-09-19T06:12:59;15.00;99.90
3644;DHT22;1838;50.742;7.158;2023-09-19T06:15:25;15.20;99.90
3644;DHT22;1838;50.742;7.158;2023-09-19T06:17:55;15.20;99.90
3644;DHT22;1838;50.742;7.158;2023-09-19T06:20:22;15.20;99.90
3644;DHT22;1838;50.742;7.158;2023-09-19T06:22:48;15.20;99.90
3644;DHT22;1838;50.742;7.158;2023-09-19T06:25:15;15.30;99.90
3644;DHT22;1838;50.742;7.158;2023-09-19T06:27:48;15.20;99.90
3644;DHT22;1838;50.742;7.158;2023-09-19T06:30:17;15.20;99.90
3644;DHT22;1838;50.742;7.158;2023-09-19T06:32:43;15.20;99.90
3644;DHT22;1838;50.742;7.158;2023-09-19T06:35:10;15.20;99.90
3644;DHT22;1838;50.742;7.158;2023-09-19T06:37:37;15.30;99.90
3644;DHT22;1838;50.742;7.158;2023-09-19T06:40:12;15.30;99.90
3644;DHT22;1838;50.742;7.158;2023-09-19T06:42:40;15.40;99.90
3644;DHT22;1838;50.742;7.158;2023-09-19T06:45:06;15.40;99.90
3644;DHT22;1838;50.742;7.158;2023-09-19T06:47:32;15.50;99.90
3644;DHT22;1838;50.742;7.158;2023-09-19T06:49:58;15.50;99.90
3644;DHT22;1838;50.742;7.158;2023-09-19T06:52:23;15.60;99.90
3644;DHT22;1838;50.742;7.158;2023-09-19T06:54:49;15.60;99.90
3644;DHT22;1838;50.742;7.158;2023-09-19T06:57:16;15.70;99.90
3644;DHT22;1838;50.742;7.158;2023-09-19T06:59:41;15.80;99.90
3644;DHT22;1838;50.742;7.158;2023-09-19T07:02:07;15.90;99.90
3644;DHT22;1838;50.742;7.158;2023-09-19T07:04:33;15.90;99.90
3644;DHT22;1838;50.742;7.158;2023-09-19T07:06:59;16.00;99.90
3644;DHT22;1838;50.742;7.158;2023-09-19T07:09:24;16.10;99.90
3644;DHT22;1838;50.742;7.158;2023-09-19T07:11:52;16.20;99.90
3644;DHT22;1838;50.742;7.158;2023-09-19T07:14:18;16.30;99.90
3644;DHT22;1838;50.742;7.158;2023-09-19T07:16:44;16.40;99.90
3644;DHT22;1838;50.742;7.158;2023-09-19T07:19:10;16.50;99.90
3644;DHT22;1838;50.742;7.158;2023-09-19T07:21:35;16.60;99.90
3644;DHT22;1838;50.742;7.158;2023-09-19T07:24:01;16.70;99.90
3644;DHT22;1838;50.742;7.158;2023-09-19T07:26:29;16.70;99.90
3644;DHT22;1838;50.742;7.158;2023-09-19T07:28:54;16.80;99.90
3644;DHT22;1838;50.742;7.158;2023-09-19T07:31:21;16.90;99.90
3644;DHT22;1838;50.742;7.158;2023-09-19T07:33:48;17.00;99.90
3644;DHT22;1838;50.742;7.158;2023-09-19T07:36:13;17.10;99.90
3644;DHT22;1838;50.742;7.158;2023-09-19T07:38:40;17.20;99.90
3644;DHT22;1838;50.742;7.158;2023-09-19T07:41:07;17.30;99.90
3644;DHT22;1838;50.742;7.158;2023-09-19T07:43:34;17.20;99.90
3644;DHT22;1838;50.742;7.158;2023-09-19T07:46:07;17.40;99.90
3644;DHT22;1838;50.742;7.158;2023-09-19T07:48:36;17.50;99.90
3644;DHT22;1838;50.742;7.158;2023-09-19T07:51:06;17.60;99.90
3644;DHT22;1838;50.742;7.158;2023-09-19T07:53:34;17.70;99.90
3644;DHT22;1838;50.742;7.158;2023-09-19T07:56:07;18.00;99.90
3644;DHT22;1838;50.742;7.158;2023-09-19T07:58:33;18.20;99.90
3644;DHT22;1838;50.742;7.158;2023-09-19T08:01:05;18.40;99.90
3644;DHT22;1838;50.742;7.158;2023-09-19T08:03:35;18.50;99.90
3644;DHT22;1838;50.742;7.158;2023-09-19T08:06:03;18.80;99.90
3644;DHT22;1838;50.742;7.158;2023-09-19T08:08:29;19.00;99.90
3644;DHT22;1838;50.742;7.158;2023-09-19T08:10:56;19.00;99.90
3644;DHT22;1838;50.742;7.158;2023-09-19T08:13:23;19.10;99.90
3644;DHT22;1838;50.742;7.158;2023-09-19T08:15:49;19.20;99.90
3644;DHT22;1838;50.742;7.158;2023-09-19T08:18:16;19.40;99.90
3644;DHT22;1838;50.742;7.158;2023-09-19T08:20:41;19.50;99.90
3644;DHT22;1838;50.742;7.158;2023-09-19T08:23:11;19.70;99.90
3644;DHT22;1838;50.742;7.158;2023-09-19T08:25:37;19.80;99.90
3644;DHT22;1838;50.742;7.158;2023-09-19T08:28:04;19.90;99.90
3644;DHT22;1838;50.742;7.158;2023-09-19T08:30:34;19.90;99.90
3644;DHT22;1838;50.742;7.158;2023-09-19T08:33:00;20.00;99.90
3644;DHT22;1838;50.742;7.158;2023-09-19T08:35:29;20.00;99.90
3644;DHT22;1838;50.742;7.158;2023-09-19T08:37:54;20.10;99.90
3644;DHT22;1838;50.742;7.158;2023-09-19T08:40:21;20.30;99.90
3644;DHT22;1838;50.742;7.158;2023-09-19T08:42:50;20.50;99.90
3644;DHT22;1838;50.742;7.158;2023-09-19T08:45:16;20.80;99.90
3644;DHT22;1838;50.742;7.158;2023-09-19T08:47:46;21.00;99.90
3644;DHT22;1838;50.742;7.158;2023-09-19T08:50:26;21.10;99.90
3644;DHT22;1838;50.742;7.158;2023-09-19T08:52:52;21.00;99.90
3644;DHT22;1838;50.742;7.158;2023-09-19T08:55:23;21.10;99.90
3644;DHT22;1838;50.742;7.158;2023-09-19T08:57:49;21.10;99.90
3644;DHT22;1838;50.742;7.158;2023-09-19T09:00:17;21.00;99.90
3644;DHT22;1838;50.742;7.158;2023-09-19T09:02:44;21.10;99.90
3644;DHT22;1838;50.742;7.158;2023-09-19T09:05:11;21.20;99.90
3644;DHT22;1838;50.742;7.158;2023-09-19T09:07:38;21.50;99.90
3644;DHT22;1838;50.742;7.158;2023-09-19T09:10:06;21.40;99.90
3644;DHT22;1838;50.742;7.158;2023-09-19T09:12:33;21.30;99.90
3644;DHT22;1838;50.742;7.158;2023-09-19T09:15:02;21.20;99.90
3644;DHT22;1838;50.742;7.158;2023-09-19T09:17:29;21.40;99.90
3644;DHT22;1838;50.742;7.158;2023-09-19T09:19:55;21.60;99.90
3644;DHT22;1838;50.742;7.158;2023-09-19T09:22:21;21.80;99.90
3644;DHT22;1838;50.742;7.158;2023-09-19T09:24:56;22.00;99.90
3644;DHT22;1838;50.742;7.158;2023-09-19T09:27:29;22.00;99.90
3644;DHT22;1838;50.742;7.158;2023-09-19T09:29:55;22.00;99.90
3644;DHT22;1838;50.742;7.158;2023-09-19T09:32:25;22.10;99.90
3644;DHT22;1838;50.742;7.158;2023-09-19T09:34:53;22.30;99.90
3644;DHT22;1838;50.742;7.158;2023-09-19T09:37:20;22.20;99.90
3644;DHT22;1838;50.742;7.158;2023-09-19T09:39:53;22.40;99.90
3644;DHT22;1838;50.742;7.158;2023-09-19T09:42:35;22.20;99.90
3644;DHT22;1838;50.742;7.158;2023-09-19T09:45:14;22.30;99.90
3644;DHT22;1838;50.742;7.158;2023-09-19T09:47:47;22.20;99.90
3644;DHT22;1838;50.742;7.158;2023-09-19T09:50:29;22.20;99.90
3644;DHT22;1838;50.742;7.158;2023-09-19T09:53:02;22.20;99.90
3644;DHT22;1838;50.742;7.158;2023-09-19T09:56:05;22.20;99.90
3644;DHT22;1838;50.742;7.158;2023-09-19T09:58:52;22.30;99.90
3644;DHT22;1838;50.742;7.158;2023-09-19T10:01:21;22.40;99.90
3644;DHT22;1838;50.742;7.158;2023-09-19T10:03:57;22.30;99.90
3644;DHT22;1838;50.742;7.158;2023-09-19T10:06:23;22.50;99.90
3644;DHT22;1838;50.742;7.158;2023-09-19T10:09:08;22.50;99.90
3644;DHT22;1838;50.742;7.158;2023-09-19T10:11:41;22.40;99.90
3644;DHT22;1838;50.742;7.158;2023-09-19T10:14:09;22.20;99.90
3644;DHT22;1838;50.742;7.158;2023-09-19T10:16:40;22.40;99.90
3644;DHT22;1838;50.742;7.158;2023-09-19T10:19:07;22.60;99.90
3644;DHT22;1838;50.742;7.158;2023-09-19T10:21:36;22.50;99.90
3644;DHT22;1838;50.742;7.158;2023-09-19T10:24:03;22.80;99.90
3644;DHT22;1838;50.742;7.158;2023-09-19T10:26:30;22.90;99.90
3644;DHT22;1838;50.742;7.158;2023-09-19T10:28:57;23.20;99.90
3644;DHT22;1838;50.742;7.158;2023-09-19T10:31:26;23.40;99.90
3644;DHT22;1838;50.742;7.158;2023-09-19T10:33:54;23.50;99.90
3644;DHT22;1838;50.742;7.158;2023-09-19T10:36:24;23.30;99.90
3644;DHT22;1838;50.742;7.158;2023-09-19T10:38:52;23.50;99.90
3644;DHT22;1838;50.742;7.158;2023-09-19T10:41:22;23.40;99.90
3644;DHT22;1838;50.742;7.158;2023-09-19T10:43:48;23.40;99.90
3644;DHT22;1838;50.742;7.158;2023-09-19T10:46:14;23.50;99.90
3644;DHT22;1838;50.742;7.158;2023-09-19T10:48:40;23.80;99.20
3644;DHT22;1838;50.742;7.158;2023-09-19T10:51:15;23.90;98.90
3644;DHT22;1838;50.742;7.158;2023-09-19T10:53:51;24.10;99.20
3644;DHT22;1838;50.742;7.158;2023-09-19T10:56:23;24.10;99.90
3644;DHT22;1838;50.742;7.158;2023-09-19T10:58:50;23.80;98.90
3644;DHT22;1838;50.742;7.158;2023-09-19T11:01:16;23.80;98.80
3644;DHT22;1838;50.742;7.158;2023-09-19T11:03:42;23.70;99.00
3644;DHT22;1838;50.742;7.158;2023-09-19T11:06:17;23.80;98.60
3644;DHT22;1838;50.742;7.158;2023-09-19T11:09:03;24.00;99.50
3644;DHT22;1838;50.742;7.158;2023-09-19T11:30:41;24.00;97.60
3644;DHT22;1838;50.742;7.158;2023-09-19T11:33:22;23.70;97.90
3644;DHT22;1838;50.742;7.158;2023-09-19T11:36:11;23.70;97.60
3644;DHT22;1838;50.742;7.158;2023-09-19T11:46:52;23.70;98.60
3644;DHT22;1838;50.742;7.158;2023-09-19T11:49:28;23.50;97.30
3644;DHT22;1838;50.742;7.158;2023-09-19T11:51:58;23.60;97.80
3644;DHT22;1838;50.742;7.158;2023-09-19T11:54:26;23.70;96.80
3644;DHT22;1838;50.742;7.158;2023-09-19T11:56:57;24.00;96.10
3644;DHT22;1838;50.742;7.158;2023-09-19T11:59:29;24.30;95.80
3644;DHT22;1838;50.742;7.158;2023-09-19T12:01:57;24.40;95.70
3644;DHT22;1838;50.742;7.158;2023-09-19T12:04:37;24.60;95.00
3644;DHT22;1838;50.742;7.158;2023-09-19T12:07:07;24.70;93.50
3644;DHT22;1838;50.742;7.158;2023-09-19T12:09:47;24.50;93.20
3644;DHT22;1838;50.742;7.158;2023-09-19T12:12:23;24.50;93.40
3644;DHT22;1838;50.742;7.158;2023-09-19T12:14:53;24.10;92.00
3644;DHT22;1838;50.742;7.158;2023-09-19T12:17:19;24.20;92.80
3644;DHT22;1838;50.742;7.158;2023-09-19T12:19:56;24.30;93.60
3644;DHT22;1838;50.742;7.158;2023-09-19T12:22:22;24.40;93.20
3644;DHT22;1838;50.742;7.158;2023-09-19T12:24:48;24.40;92.90
3644;DHT22;1838;50.742;7.158;2023-09-19T12:27:14;24.60;92.80
3644;DHT22;1838;50.742;7.158;2023-09-19T12:29:49;24.40;92.10
3644;DHT22;1838;50.742;7.158;2023-09-19T12:32:15;24.40;92.90
3644;DHT22;1838;50.742;7.158;2023-09-19T12:34:51;24.40;93.40
3644;DHT22;1838;50.742;7.158;2023-09-19T12:37:18;24.50;92.80
3644;DHT22;1838;50.742;7.158;2023-09-19T12:39:47;24.70;92.30
3644;DHT22;1838;50.742;7.158;2023-09-19T12:42:19;24.90;91.90
3644;DHT22;1838;50.742;7.158;2023-09-19T12:44:47;25.10;90.70
3644;DHT22;1838;50.742;7.158;2023-09-19T12:47:15;24.70;88.60
3644;DHT22;1838;50.742;7.158;2023-09-19T12:50:05;24.80;88.60
3644;DHT22;1838;50.742;7.158;2023-09-19T12:52:39;24.70;89.00
3644;DHT22;1838;50.742;7.158;2023-09-19T12:55:05;24.80;88.30
3644;DHT22;1838;50.742;7.158;2023-09-19T12:57:33;24.80;88.60
3644;DHT22;1838;50.742;7.158;2023-09-19T13:00:04;24.90;88.10
3644;DHT22;1838;50.742;7.158;2023-09-19T13:02:37;25.00;89.30
3644;DHT22;1838;50.742;7.158;2023-09-19T13:05:03;25.10;85.70
3644;DHT22;1838;50.742;7.158;2023-09-19T13:07:42;25.00;87.30
3644;DHT22;1838;50.742;7.158;2023-09-19T13:10:09;24.90;87.90
3644;DHT22;1838;50.742;7.158;2023-09-19T13:12:36;25.00;88.00
3644;DHT22;1838;50.742;7.158;2023-09-19T13:15:10;25.00;88.00
3644;DHT22;1838;50.742;7.158;2023-09-19T13:17:43;24.60;88.10
3644;DHT22;1838;50.742;7.158;2023-09-19T13:20:21;24.40;85.70
3644;DHT22;1838;50.742;7.158;2023-09-19T13:22:50;24.30;90.10
3644;DHT22;1838;50.742;7.158;2023-09-19T13:25:19;24.30;88.30
3644;DHT22;1838;50.742;7.158;2023-09-19T13:27:55;24.30;88.90
3644;DHT22;1838;50.742;7.158;2023-09-19T13:30:26;24.40;88.80
3644;DHT22;1838;50.742;7.158;2023-09-19T13:32:53;24.60;89.00
3644;DHT22;1838;50.742;7.158;2023-09-19T13:35:29;24.40;89.30
3644;DHT22;1838;50.742;7.158;2023-09-19T13:37:54;24.40;89.50
3644;DHT22;1838;50.742;7.158;2023-09-19T13:40:20;24.40;90.20
3644;DHT22;1838;50.742;7.158;2023-09-19T13:42:45;24.50;90.20
3644;DHT22;1838;50.742;7.158;2023-09-19T13:45:11;24.40;90.40
3644;DHT22;1838;50.742;7.158;2023-09-19T13:47:38;24.40;90.00
3644;DHT22;1838;50.742;7.158;2023-09-19T13:50:04;24.30;90.40
3644;DHT22;1838;50.742;7.158;2023-09-19T13:52:31;24.40;90.50
3644;DHT22;1838;50.742;7.158;2023-09-19T13:54:57;24.30;90.20
3644;DHT22;1838;50.742;7.158;2023-09-19T13:57:24;24.40;90.40
3644;DHT22;1838;50.742;7.158;2023-09-19T13:59:49;24.20;88.20
3644;DHT22;1838;50.742;7.158;2023-09-19T14:02:15;24.20;89.50
3644;DHT22;1838;50.742;7.158;2023-09-19T14:04:44;24.30;90.10
3644;DHT22;1838;50.742;7.158;2023-09-19T14:07:09;24.10;90.00
3644;DHT22;1838;50.742;7.158;2023-09-19T14:09:37;24.30;90.20
3644;DHT22;1838;50.742;7.158;2023-09-19T14:12:02;24.20;90.60
3644;DHT22;1838;50.742;7.158;2023-09-19T14:14:28;24.30;90.50
3644;DHT22;1838;50.742;7.158;2023-09-19T14:16:53;24.50;91.00
3644;DHT22;1838;50.742;7.158;2023-09-19T14:19:20;24.50;90.30
3644;DHT22;1838;50.742;7.158;2023-09-19T14:21:45;24.50;89.50
3644;DHT22;1838;50.742;7.158;2023-09-19T14:24:16;24.70;90.30
3644;DHT22;1838;50.742;7.158;2023-09-19T14:26:42;24.70;90.10
3644;DHT22;1838;50.742;7.158;2023-09-19T14:29:07;24.90;90.10
3644;DHT22;1838;50.742;7.158;2023-09-19T14:31:33;24.70;87.70
3644;DHT22;1838;50.742;7.158;2023-09-19T14:33:59;24.80;90.10
3644;DHT22;1838;50.742;7.158;2023-09-19T14:36:25;24.80;88.80
3644;DHT22;1838;50.742;7.158;2023-09-19T14:38:55;24.90;90.20
3644;DHT22;1838;50.742;7.158;2023-09-19T14:41:22;25.10;88.60
3644;DHT22;1838;50.742;7.158;2023-09-19T14:43:53;25.10;89.50
3644;DHT22;1838;50.742;7.158;2023-09-19T14:46:21;25.30;88.10
3644;DHT22;1838;50.742;7.158;2023-09-19T14:48:46;25.40;87.60
3644;DHT22;1838;50.742;7.158;2023-09-19T14:51:16;25.10;86.40
3644;DHT22;1838;50.742;7.158;2023-09-19T14:53:42;25.00;86.40
3644;DHT22;1838;50.742;7.158;2023-09-19T14:56:09;24.90;85.40
3644;DHT22;1838;50.742;7.158;2023-09-19T14:58:35;25.00;85.60
3644;DHT22;1838;50.742;7.158;2023-09-19T15:01:04;25.00;85.60
3644;DHT22;1838;50.742;7.158;2023-09-19T15:03:34;25.10;85.70
3644;DHT22;1838;50.742;7.158;2023-09-19T15:06:03;25.20;84.50
3644;DHT22;1838;50.742;7.158;2023-09-19T15:08:30;25.20;84.60
3644;DHT22;1838;50.742;7.158;2023-09-19T15:10:56;25.20;83.10
3644;DHT22;1838;50.742;7.158;2023-09-19T15:13:24;25.10;83.30
3644;DHT22;1838;50.742;7.158;2023-09-19T15:15:58;25.00;83.50
3644;DHT22;1838;50.742;7.158;2023-09-19T15:18:24;24.80;83.30
3644;DHT22;1838;50.742;7.158;2023-09-19T15:20:50;24.80;84.10
3644;DHT22;1838;50.742;7.158;2023-09-19T15:23:16;24.80;83.90
3644;DHT22;1838;50.742;7.158;2023-09-19T15:25:48;24.70;84.30
3644;DHT22;1838;50.742;7.158;2023-09-19T15:28:14;24.70;84.80
3644;DHT22;1838;50.742;7.158;2023-09-19T15:30:39;24.70;85.10
3644;DHT22;1838;50.742;7.158;2023-09-19T15:33:05;24.60;84.20
3644;DHT22;1838;50.742;7.158;2023-09-19T15:35:31;24.70;85.40
3644;DHT22;1838;50.742;7.158;2023-09-19T15:37:56;24.60;85.00
3644;DHT22;1838;50.742;7.158;2023-09-19T15:40:24;24.40;84.30
3644;DHT22;1838;50.742;7.158;2023-09-19T15:42:50;24.40;85.70
3644;DHT22;1838;50.742;7.158;2023-09-19T15:45:16;24.30;85.80
3644;DHT22;1838;50.742;7.158;2023-09-19T15:47:43;24.10;86.60
3644;DHT22;1838;50.742;7.158;2023-09-19T15:50:08;24.00;86.80
3644;DHT22;1838;50.742;7.158;2023-09-19T15:52:35;23.90;87.50
3644;DHT22;1838;50.742;7.158;2023-09-19T15:55:03;23.90;87.10
3644;DHT22;1838;50.742;7.158;2023-09-19T15:57:28;23.70;88.30
3644;DHT22;1838;50.742;7.158;2023-09-19T15:59:54;23.70;88.50
3644;DHT22;1838;50.742;7.158;2023-09-19T16:02:20;23.70;89.20
3644;DHT22;1838;50.742;7.158;2023-09-19T16:04:45;23.50;90.00
3644;DHT22;1838;50.742;7.158;2023-09-19T16:07:11;23.50;90.30
3644;DHT22;1838;50.742;7.158;2023-09-19T16:09:36;23.40;90.20
3644;DHT22;1838;50.742;7.158;2023-09-19T16:12:02;23.30;90.10
3644;DHT22;1838;50.742;7.158;2023-09-19T16:14:28;23.20;90.70
3644;DHT22;1838;50.742;7.158;2023-09-19T16:16:56;23.20;90.90
3644;DHT22;1838;50.742;7.158;2023-09-19T16:19:23;23.20;91.20
3644;DHT22;1838;50.742;7.158;2023-09-19T16:21:48;23.20;91.50
3644;DHT22;1838;50.742;7.158;2023-09-19T16:24:14;23.20;91.30
3644;DHT22;1838;50.742;7.158;2023-09-19T16:26:40;23.00;91.80
3644;DHT22;1838;50.742;7.158;2023-09-19T16:29:05;23.00;92.00
3644;DHT22;1838;50.742;7.158;2023-09-19T16:31:31;22.90;92.30
3644;DHT22;1838;50.742;7.158;2023-09-19T16:33:58;22.90;92.60
3644;DHT22;1838;50.742;7.158;2023-09-19T16:36:25;23.00;92.90
3644;DHT22;1838;50.742;7.158;2023-09-19T16:38:51;22.90;93.00
3644;DHT22;1838;50.742;7.158;2023-09-19T16:41:17;22.90;92.90
3644;DHT22;1838;50.742;7.158;2023-09-19T16:43:44;22.90;93.10
3644;DHT22;1838;50.742;7.158;2023-09-19T16:46:12;23.00;92.90
3644;DHT22;1838;50.742;7.158;2023-09-19T16:48:39;22.70;93.50